sensor_id;sensor_type;location;lat;lon;timestamp;P1;durP1;ratioP1;P2;durP2;ratioP2
63370;SDS011;49504;48.336;14.472;2022-12-07T00:00:42;5.53;;;3.88;;
63370;SDS011;49504;48.336;14.472;2022-12-07T00:05:43;5.97;;;4.15;;
63370;SDS011;49504;48.336;14.472;2022-12-07T00:10:45;7.32;;;4.10;;
63370;SDS011;49504;48.336;14.472;2022-12-07T00:15:46;5.65;;;4.03;;
63370;SDS011;49504;48.336;14.472;2022-12-07T00:20:47;5.13;;;3.67;;
63370;SDS011;49504;48.336;14.472;2022-12-07T00:25:49;6.47;;;4.13;;
63370;SDS011;49504;48.336;14.472;2022-12-07T00:30:50;5.70;;;4.00;;
63370;SDS011;49504;48.336;14.472;2022-12-07T00:35:54;5.53;;;4.00;;
63370;SDS011;49504;48.336;14.472;2022-12-07T00:40:58;5.78;;;4.03;;
63370;SDS011;49504;48.336;14.472;2022-12-07T00:46:01;6.50;;;4.35;;
63370;SDS011;49504;48.336;14.472;2022-12-07T00:51:02;5.95;;;4.22;;
63370;SDS011;49504;48.336;14.472;2022-12-07T00:56:07;5.60;;;3.70;;
63370;SDS011;49504;48.336;14.472;2022-12-07T01:01:09;5.47;;;3.97;;
63370;SDS011;49504;48.336;14.472;2022-12-07T01:06:13;5.60;;;3.65;;
63370;SDS011;49504;48.336;14.472;2022-12-07T01:11:17;5.80;;;3.75;;
63370;SDS011;49504;48.336;14.472;2022-12-07T01:16:21;6.13;;;3.63;;
63370;SDS011;49504;48.336;14.472;2022-12-07T01:21:25;5.53;;;3.67;;
63370;SDS011;49504;48.336;14.472;2022-12-07T01:26:30;5.60;;;3.80;;
63370;SDS011;49504;48.336;14.472;2022-12-07T01:31:31;5.68;;;4.20;;
63370;SDS011;49504;48.336;14.472;2022-12-07T01:36:33;5.85;;;3.80;;
63370;SDS011;49504;48.336;14.472;2022-12-07T01:41:38;6.80;;;4.20;;
63370;SDS011;49504;48.336;14.472;2022-12-07T01:46:41;5.88;;;3.85;;
63370;SDS011;49504;48.336;14.472;2022-12-07T01:51:43;5.00;;;3.60;;
63370;SDS011;49504;48.336;14.472;2022-12-07T01:56:48;5.72;;;3.85;;
63370;SDS011;49504;48.336;14.472;2022-12-07T02:01:54;5.28;;;3.70;;
63370;SDS011;49504;48.336;14.472;2022-12-07T02:09:09;5.65;;;3.42;;
63370;SDS011;49504;48.336;14.472;2022-12-07T02:14:10;6.82;;;4.10;;
63370;SDS011;49504;48.336;14.472;2022-12-07T02:19:22;5.63;;;3.83;;
63370;SDS011;49504;48.336;14.472;2022-12-07T02:24:54;5.28;;;3.22;;
63370;SDS011;49504;48.336;14.472;2022-12-07T02:30:00;5.70;;;3.72;;
63370;SDS011;49504;48.336;14.472;2022-12-07T02:35:04;6.00;;;3.90;;
63370;SDS011;49504;48.336;14.472;2022-12-07T02:40:10;5.32;;;3.60;;
63370;SDS011;49504;48.336;14.472;2022-12-07T02:45:20;5.13;;;3.53;;
63370;SDS011;49504;48.336;14.472;2022-12-07T02:50:24;4.88;;;3.55;;
63370;SDS011;49504;48.336;14.472;2022-12-07T02:55:28;5.03;;;3.70;;
63370;SDS011;49504;48.336;14.472;2022-12-07T03:00:37;5.53;;;3.25;;
63370;SDS011;49504;48.336;14.472;2022-12-07T03:05:54;6.47;;;3.85;;
63370;SDS011;49504;48.336;14.472;2022-12-07T03:11:06;5.03;;;3.35;;
63370;SDS011;49504;48.336;14.472;2022-12-07T03:16:12;5.03;;;3.45;;
63370;SDS011;49504;48.336;14.472;2022-12-07T03:21:17;4.95;;;3.25;;
63370;SDS011;49504;48.336;14.472;2022-12-07T03:26:24;5.40;;;3.60;;
63370;SDS011;49504;48.336;14.472;2022-12-07T03:31:33;4.32;;;2.80;;
63370;SDS011;49504;48.336;14.472;2022-12-07T03:36:39;5.30;;;3.47;;
63370;SDS011;49504;48.336;14.472;2022-12-07T03:41:47;5.00;;;3.30;;
63370;SDS011;49504;48.336;14.472;2022-12-07T03:46:52;4.90;;;3.15;;
63370;SDS011;49504;48.336;14.472;2022-12-07T03:52:02;5.32;;;3.47;;
63370;SDS011;49504;48.336;14.472;2022-12-07T03:57:12;5.70;;;3.30;;
63370;SDS011;49504;48.336;14.472;2022-12-07T04:02:15;5.03;;;3.30;;
63370;SDS011;49504;48.336;14.472;2022-12-07T04:07:17;4.53;;;2.88;;
63370;SDS011;49504;48.336;14.472;2022-12-07T04:12:18;5.88;;;2.97;;
63370;SDS011;49504;48.336;14.472;2022-12-07T04:17:20;5.13;;;2.97;;
63370;SDS011;49504;48.336;14.472;2022-12-07T04:22:21;4.70;;;3.10;;
63370;SDS011;49504;48.336;14.472;2022-12-07T04:27:22;4.40;;;2.53;;
63370;SDS011;49504;48.336;14.472;2022-12-07T04:32:24;4.47;;;2.72;;
63370;SDS011;49504;48.336;14.472;2022-12-07T04:37:25;6.10;;;3.50;;
63370;SDS011;49504;48.336;14.472;2022-12-07T04:42:26;5.40;;;3.38;;
63370;SDS011;49504;48.336;14.472;2022-12-07T04:47:29;6.88;;;3.17;;
63370;SDS011;49504;48.336;14.472;2022-12-07T04:52:30;5.05;;;2.80;;
63370;SDS011;49504;48.336;14.472;2022-12-07T04:57:31;5.20;;;3.08;;
63370;SDS011;49504;48.336;14.472;2022-12-07T05:02:33;10.15;;;3.40;;
63370;SDS011;49504;48.336;14.472;2022-12-07T05:08:24;6.47;;;3.50;;
63370;SDS011;49504;48.336;14.472;2022-12-07T05:13:25;5.32;;;3.20;;
63370;SDS011;49504;48.336;14.472;2022-12-07T05:18:26;6.05;;;3.38;;
63370;SDS011;49504;48.336;14.472;2022-12-07T05:23:29;7.47;;;3.85;;
63370;SDS011;49504;48.336;14.472;2022-12-07T05:28:30;8.15;;;3.88;;
63370;SDS011;49504;48.336;14.472;2022-12-07T05:33:31;8.63;;;3.45;;
63370;SDS011;49504;48.336;14.472;2022-12-07T05:38:33;7.45;;;3.78;;
63370;SDS011;49504;48.336;14.472;2022-12-07T05:43:34;6.47;;;3.25;;
63370;SDS011;49504;48.336;14.472;2022-12-07T05:48:35;8.18;;;4.22;;
63370;SDS011;49504;48.336;14.472;2022-12-07T05:53:37;9.00;;;3.90;;
63370;SDS011;49504;48.336;14.472;2022-12-07T05:58:38;8.50;;;3.10;;
63370;SDS011;49504;48.336;14.472;2022-12-07T06:03:39;5.93;;;3.58;;
63370;SDS011;49504;48.336;14.472;2022-12-07T06:08:42;8.32;;;3.33;;
63370;SDS011;49504;48.336;14.472;2022-12-07T06:13:43;7.32;;;3.22;;
63370;SDS011;49504;48.336;14.472;2022-12-07T06:18:43;5.45;;;2.97;;
63370;SDS011;49504;48.336;14.472;2022-12-07T06:23:46;6.97;;;3.15;;
63370;SDS011;49504;48.336;14.472;2022-12-07T06:28:47;5.88;;;2.85;;
63370;SDS011;49504;48.336;14.472;2022-12-07T06:33:48;6.43;;;2.83;;
63370;SDS011;49504;48.336;14.472;2022-12-07T06:38:50;6.18;;;2.78;;
63370;SDS011;49504;48.336;14.472;2022-12-07T06:43:52;6.38;;;3.10;;
63370;SDS011;49504;48.336;14.472;2022-12-07T06:57:30;4.90;;;2.83;;
63370;SDS011;49504;48.336;14.472;2022-12-07T07:02:31;6.22;;;2.97;;
63370;SDS011;49504;48.336;14.472;2022-12-07T07:07:32;5.13;;;2.70;;
63370;SDS011;49504;48.336;14.472;2022-12-07T07:12:35;7.53;;;3.25;;
63370;SDS011;49504;48.336;14.472;2022-12-07T07:17:35;4.70;;;2.40;;
63370;SDS011;49504;48.336;14.472;2022-12-07T07:22:36;5.18;;;2.95;;
63370;SDS011;49504;48.336;14.472;2022-12-07T07:27:39;5.10;;;2.47;;
63370;SDS011;49504;48.336;14.472;2022-12-07T07:32:40;5.10;;;2.60;;
63370;SDS011;49504;48.336;14.472;2022-12-07T07:37:41;5.22;;;2.60;;
63370;SDS011;49504;48.336;14.472;2022-12-07T07:42:43;6.22;;;2.90;;
63370;SDS011;49504;48.336;14.472;2022-12-07T07:47:47;5.28;;;2.40;;
63370;SDS011;49504;48.336;14.472;2022-12-07T07:52:48;4.65;;;2.35;;
63370;SDS011;49504;48.336;14.472;2022-12-07T07:57:51;4.50;;;2.20;;
63370;SDS011;49504;48.336;14.472;2022-12-07T08:02:52;4.53;;;2.40;;
63370;SDS011;49504;48.336;14.472;2022-12-07T08:07:53;5.25;;;2.58;;
63370;SDS011;49504;48.336;14.472;2022-12-07T08:12:55;5.10;;;2.30;;
63370;SDS011;49504;48.336;14.472;2022-12-07T08:17:56;4.65;;;2.22;;
63370;SDS011;49504;48.336;14.472;2022-12-07T08:22:57;4.80;;;2.50;;
63370;SDS011;49504;48.336;14.472;2022-12-07T08:28:00;4.22;;;2.22;;
63370;SDS011;49504;48.336;14.472;2022-12-07T08:33:02;4.00;;;2.30;;
63370;SDS011;49504;48.336;14.472;2022-12-07T08:38:03;4.82;;;2.60;;
63370;SDS011;49504;48.336;14.472;2022-12-07T08:43:05;3.67;;;2.13;;
63370;SDS011;49504;48.336;14.472;2022-12-07T08:48:07;3.97;;;2.20;;
63370;SDS011;49504;48.336;14.472;2022-12-07T08:53:10;4.00;;;2.15;;
63370;SDS011;49504;48.336;14.472;2022-12-07T08:58:13;4.57;;;2.50;;
63370;SDS011;49504;48.336;14.472;2022-12-07T09:03:14;4.72;;;2.42;;
63370;SDS011;49504;48.336;14.472;2022-12-07T09:08:15;5.10;;;2.80;;
63370;SDS011;49504;48.336;14.472;2022-12-07T09:13:17;3.90;;;2.15;;
63370;SDS011;49504;48.336;14.472;2022-12-07T09:18:18;3.67;;;2.15;;
63370;SDS011;49504;48.336;14.472;2022-12-07T09:23:19;4.00;;;2.40;;
63370;SDS011;49504;48.336;14.472;2022-12-07T09:28:21;3.88;;;2.17;;
63370;SDS011;49504;48.336;14.472;2022-12-07T09:33:22;5.20;;;2.60;;
63370;SDS011;49504;48.336;14.472;2022-12-07T09:38:23;3.65;;;1.88;;
63370;SDS011;49504;48.336;14.472;2022-12-07T09:43:26;3.97;;;2.15;;
63370;SDS011;49504;48.336;14.472;2022-12-07T09:48:28;4.38;;;2.40;;
63370;SDS011;49504;48.336;14.472;2022-12-07T09:53:32;4.55;;;2.85;;
63370;SDS011;49504;48.336;14.472;2022-12-07T09:58:37;4.35;;;2.25;;
63370;SDS011;49504;48.336;14.472;2022-12-07T10:03:39;4.32;;;2.47;;
63370;SDS011;49504;48.336;14.472;2022-12-07T10:08:53;5.10;;;2.58;;
63370;SDS011;49504;48.336;14.472;2022-12-07T10:13:55;5.57;;;2.50;;
63370;SDS011;49504;48.336;14.472;2022-12-07T10:19:27;4.45;;;2.38;;
63370;SDS011;49504;48.336;14.472;2022-12-07T10:24:30;4.83;;;2.40;;
63370;SDS011;49504;48.336;14.472;2022-12-07T10:29:33;4.47;;;2.50;;
63370;SDS011;49504;48.336;14.472;2022-12-07T10:34:37;3.50;;;2.22;;
63370;SDS011;49504;48.336;14.472;2022-12-07T10:39:40;3.50;;;2.17;;
63370;SDS011;49504;48.336;14.472;2022-12-07T10:44:44;4.03;;;2.15;;
63370;SDS011;49504;48.336;14.472;2022-12-07T10:55:21;4.03;;;2.40;;
63370;SDS011;49504;48.336;14.472;2022-12-07T11:00:29;4.22;;;2.17;;
63370;SDS011;49504;48.336;14.472;2022-12-07T11:05:39;4.50;;;2.45;;
63370;SDS011;49504;48.336;14.472;2022-12-07T11:10:47;4.45;;;2.40;;
63370;SDS011;49504;48.336;14.472;2022-12-07T11:15:59;3.80;;;2.10;;
63370;SDS011;49504;48.336;14.472;2022-12-07T11:21:18;4.20;;;2.38;;
63370;SDS011;49504;48.336;14.472;2022-12-07T11:26:34;3.88;;;2.15;;
63370;SDS011;49504;48.336;14.472;2022-12-07T11:31:53;3.80;;;2.15;;
63370;SDS011;49504;48.336;14.472;2022-12-07T11:37:03;3.97;;;2.03;;
63370;SDS011;49504;48.336;14.472;2022-12-07T11:42:13;4.45;;;2.65;;
63370;SDS011;49504;48.336;14.472;2022-12-07T11:47:22;4.03;;;2.25;;
63370;SDS011;49504;48.336;14.472;2022-12-07T11:52:43;4.32;;;2.53;;
63370;SDS011;49504;48.336;14.472;2022-12-07T11:57:50;3.92;;;2.17;;
63370;SDS011;49504;48.336;14.472;2022-12-07T12:04:41;3.50;;;2.00;;
63370;SDS011;49504;48.336;14.472;2022-12-07T12:09:51;4.30;;;2.42;;
63370;SDS011;49504;48.336;14.472;2022-12-07T12:14:58;3.55;;;2.20;;
63370;SDS011;49504;48.336;14.472;2022-12-07T12:20:16;3.70;;;2.00;;
63370;SDS011;49504;48.336;14.472;2022-12-07T12:25:24;3.80;;;2.15;;
63370;SDS011;49504;48.336;14.472;2022-12-07T12:30:32;4.60;;;2.35;;
63370;SDS011;49504;48.336;14.472;2022-12-07T12:35:37;4.18;;;2.03;;
63370;SDS011;49504;48.336;14.472;2022-12-07T12:40:42;4.10;;;2.22;;
63370;SDS011;49504;48.336;14.472;2022-12-07T12:45:44;4.18;;;2.28;;
63370;SDS011;49504;48.336;14.472;2022-12-07T12:50:46;3.35;;;1.88;;
63370;SDS011;49504;48.336;14.472;2022-12-07T13:06:57;3.67;;;2.22;;
63370;SDS011;49504;48.336;14.472;2022-12-07T13:12:00;12.73;;;3.67;;
63370;SDS011;49504;48.336;14.472;2022-12-07T13:17:05;10.85;;;3.70;;
63370;SDS011;49504;48.336;14.472;2022-12-07T13:22:35;17.77;;;6.22;;
63370;SDS011;49504;48.336;14.472;2022-12-07T13:27:46;62.70;;;20.00;;
63370;SDS011;49504;48.336;14.472;2022-12-07T13:32:58;37.08;;;12.65;;
63370;SDS011;49504;48.336;14.472;2022-12-07T13:38:02;22.23;;;8.05;;
63370;SDS011;49504;48.336;14.472;2022-12-07T13:43:21;17.08;;;6.55;;
63370;SDS011;49504;48.336;14.472;2022-12-07T13:48:24;15.73;;;5.65;;
63370;SDS011;49504;48.336;14.472;2022-12-07T13:53:33;12.77;;;5.82;;
63370;SDS011;49504;48.336;14.472;2022-12-07T13:58:46;14.50;;;4.80;;
63370;SDS011;49504;48.336;14.472;2022-12-07T14:03:47;8.60;;;3.95;;
63370;SDS011;49504;48.336;14.472;2022-12-07T14:08:50;14.20;;;5.93;;
63370;SDS011;49504;48.336;14.472;2022-12-07T14:14:10;13.05;;;4.50;;
63370;SDS011;49504;48.336;14.472;2022-12-07T14:24:50;10.40;;;3.80;;
63370;SDS011;49504;48.336;14.472;2022-12-07T14:30:15;13.55;;;5.47;;
63370;SDS011;49504;48.336;14.472;2022-12-07T14:40:20;11.73;;;4.82;;
63370;SDS011;49504;48.336;14.472;2022-12-07T14:45:24;7.80;;;3.55;;
63370;SDS011;49504;48.336;14.472;2022-12-07T14:50:25;9.75;;;4.25;;
63370;SDS011;49504;48.336;14.472;2022-12-07T14:55:28;8.43;;;3.75;;
63370;SDS011;49504;48.336;14.472;2022-12-07T15:00:31;10.32;;;4.18;;
63370;SDS011;49504;48.336;14.472;2022-12-07T15:05:32;8.48;;;3.72;;
63370;SDS011;49504;48.336;14.472;2022-12-07T15:10:36;11.15;;;3.65;;
63370;SDS011;49504;48.336;14.472;2022-12-07T15:15:37;6.85;;;3.75;;
63370;SDS011;49504;48.336;14.472;2022-12-07T15:20:38;7.45;;;3.50;;
63370;SDS011;49504;48.336;14.472;2022-12-07T15:25:42;8.05;;;3.22;;
63370;SDS011;49504;48.336;14.472;2022-12-07T15:30:45;6.55;;;3.22;;
63370;SDS011;49504;48.336;14.472;2022-12-07T15:35:46;8.35;;;3.15;;
63370;SDS011;49504;48.336;14.472;2022-12-07T15:40:50;5.75;;;2.65;;
63370;SDS011;49504;48.336;14.472;2022-12-07T15:45:52;5.60;;;2.92;;
63370;SDS011;49504;48.336;14.472;2022-12-07T15:50:53;6.60;;;3.35;;
63370;SDS011;49504;48.336;14.472;2022-12-07T15:56:07;6.07;;;2.80;;
63370;SDS011;49504;48.336;14.472;2022-12-07T16:01:16;6.97;;;3.00;;
63370;SDS011;49504;48.336;14.472;2022-12-07T16:06:23;8.48;;;3.45;;
63370;SDS011;49504;48.336;14.472;2022-12-07T16:11:25;9.30;;;5.53;;
63370;SDS011;49504;48.336;14.472;2022-12-07T16:16:26;13.95;;;10.40;;
63370;SDS011;49504;48.336;14.472;2022-12-07T16:21:27;9.68;;;5.60;;
63370;SDS011;49504;48.336;14.472;2022-12-07T16:26:32;7.20;;;3.88;;
63370;SDS011;49504;48.336;14.472;2022-12-07T16:31:37;6.63;;;3.95;;
63370;SDS011;49504;48.336;14.472;2022-12-07T16:36:38;7.45;;;4.15;;
63370;SDS011;49504;48.336;14.472;2022-12-07T16:41:41;6.38;;;2.97;;
63370;SDS011;49504;48.336;14.472;2022-12-07T16:46:43;5.82;;;3.58;;
63370;SDS011;49504;48.336;14.472;2022-12-07T16:51:45;5.93;;;3.90;;
63370;SDS011;49504;48.336;14.472;2022-12-07T16:56:52;9.18;;;3.92;;
63370;SDS011;49504;48.336;14.472;2022-12-07T17:01:54;8.30;;;4.22;;
63370;SDS011;49504;48.336;14.472;2022-12-07T17:06:56;7.45;;;3.78;;
63370;SDS011;49504;48.336;14.472;2022-12-07T17:12:00;5.75;;;3.22;;
63370;SDS011;49504;48.336;14.472;2022-12-07T17:17:01;7.30;;;3.17;;
63370;SDS011;49504;48.336;14.472;2022-12-07T17:22:02;8.77;;;4.47;;
63370;SDS011;49504;48.336;14.472;2022-12-07T17:27:05;8.55;;;4.20;;
63370;SDS011;49504;48.336;14.472;2022-12-07T17:32:06;7.35;;;4.40;;
63370;SDS011;49504;48.336;14.472;2022-12-07T17:37:07;6.78;;;3.60;;
63370;SDS011;49504;48.336;14.472;2022-12-07T17:42:10;9.02;;;4.10;;
63370;SDS011;49504;48.336;14.472;2022-12-07T17:47:11;7.63;;;4.30;;
63370;SDS011;49504;48.336;14.472;2022-12-07T17:52:12;8.40;;;4.90;;
63370;SDS011;49504;48.336;14.472;2022-12-07T17:57:15;9.38;;;4.03;;
63370;SDS011;49504;48.336;14.472;2022-12-07T18:02:16;8.85;;;4.95;;
63370;SDS011;49504;48.336;14.472;2022-12-07T18:07:18;9.45;;;5.43;;
63370;SDS011;49504;48.336;14.472;2022-12-07T18:12:21;8.20;;;5.18;;
63370;SDS011;49504;48.336;14.472;2022-12-07T18:17:22;10.15;;;5.45;;
63370;SDS011;49504;48.336;14.472;2022-12-07T18:22:23;9.70;;;4.65;;
63370;SDS011;49504;48.336;14.472;2022-12-07T18:27:26;9.75;;;5.20;;
63370;SDS011;49504;48.336;14.472;2022-12-07T18:32:27;9.93;;;5.75;;
63370;SDS011;49504;48.336;14.472;2022-12-07T18:37:27;8.93;;;5.75;;
63370;SDS011;49504;48.336;14.472;2022-12-07T18:42:30;11.52;;;6.25;;
63370;SDS011;49504;48.336;14.472;2022-12-07T18:47:32;10.15;;;5.82;;
63370;SDS011;49504;48.336;14.472;2022-12-07T18:52:33;11.77;;;6.78;;
63370;SDS011;49504;48.336;14.472;2022-12-07T18:57:36;10.07;;;6.20;;
63370;SDS011;49504;48.336;14.472;2022-12-07T19:02:37;11.80;;;6.30;;
63370;SDS011;49504;48.336;14.472;2022-12-07T19:07:39;11.13;;;6.57;;
63370;SDS011;49504;48.336;14.472;2022-12-07T19:12:41;11.18;;;6.18;;
63370;SDS011;49504;48.336;14.472;2022-12-07T19:17:43;9.77;;;6.75;;
63370;SDS011;49504;48.336;14.472;2022-12-07T19:22:44;12.18;;;6.78;;
63370;SDS011;49504;48.336;14.472;2022-12-07T19:27:47;9.50;;;5.90;;
63370;SDS011;49504;48.336;14.472;2022-12-07T19:32:48;11.75;;;6.55;;
63370;SDS011;49504;48.336;14.472;2022-12-07T19:37:48;11.25;;;6.70;;
63370;SDS011;49504;48.336;14.472;2022-12-07T19:46:07;9.93;;;6.05;;
63370;SDS011;49504;48.336;14.472;2022-12-07T19:51:08;10.90;;;7.03;;
63370;SDS011;49504;48.336;14.472;2022-12-07T19:56:12;10.93;;;6.68;;
63370;SDS011;49504;48.336;14.472;2022-12-07T20:01:15;11.35;;;6.72;;
63370;SDS011;49504;48.336;14.472;2022-12-07T20:06:17;10.77;;;6.68;;
63370;SDS011;49504;48.336;14.472;2022-12-07T20:11:19;11.65;;;6.78;;
63370;SDS011;49504;48.336;14.472;2022-12-07T20:16:22;11.40;;;6.90;;
63370;SDS011;49504;48.336;14.472;2022-12-07T20:21:24;9.55;;;6.22;;
63370;SDS011;49504;48.336;14.472;2022-12-07T20:26:26;10.07;;;6.40;;
63370;SDS011;49504;48.336;14.472;2022-12-07T20:31:31;12.88;;;8.13;;
63370;SDS011;49504;48.336;14.472;2022-12-07T20:36:32;11.10;;;7.55;;
63370;SDS011;49504;48.336;14.472;2022-12-07T20:41:33;11.00;;;7.03;;
63370;SDS011;49504;48.336;14.472;2022-12-07T20:46:36;11.60;;;7.93;;
63370;SDS011;49504;48.336;14.472;2022-12-07T20:51:37;10.15;;;7.25;;
63370;SDS011;49504;48.336;14.472;2022-12-07T20:56:38;11.13;;;6.95;;
63370;SDS011;49504;48.336;14.472;2022-12-07T21:01:41;10.55;;;7.40;;
63370;SDS011;49504;48.336;14.472;2022-12-07T21:06:43;11.82;;;7.60;;
63370;SDS011;49504;48.336;14.472;2022-12-07T21:11:44;12.95;;;7.72;;
63370;SDS011;49504;48.336;14.472;2022-12-07T21:16:46;10.57;;;6.90;;
63370;SDS011;49504;48.336;14.472;2022-12-07T21:21:47;11.13;;;6.95;;
63370;SDS011;49504;48.336;14.472;2022-12-07T21:26:48;9.68;;;6.93;;
63370;SDS011;49504;48.336;14.472;2022-12-07T21:31:50;11.00;;;6.80;;
63370;SDS011;49504;48.336;14.472;2022-12-07T21:36:51;10.68;;;6.78;;
63370;SDS011;49504;48.336;14.472;2022-12-07T21:42:01;9.75;;;6.70;;
63370;SDS011;49504;48.336;14.472;2022-12-07T21:47:02;10.07;;;6.85;;
63370;SDS011;49504;48.336;14.472;2022-12-07T21:52:04;8.75;;;5.95;;
63370;SDS011;49504;48.336;14.472;2022-12-07T21:57:07;8.57;;;6.07;;
63370;SDS011;49504;48.336;14.472;2022-12-07T22:02:08;9.05;;;6.18;;
63370;SDS011;49504;48.336;14.472;2022-12-07T22:07:12;10.07;;;6.60;;
63370;SDS011;49504;48.336;14.472;2022-12-07T22:12:15;10.48;;;6.03;;
63370;SDS011;49504;48.336;14.472;2022-12-07T22:17:16;9.88;;;5.97;;
63370;SDS011;49504;48.336;14.472;2022-12-07T22:22:17;9.50;;;6.00;;
63370;SDS011;49504;48.336;14.472;2022-12-07T22:27:19;9.05;;;5.68;;
63370;SDS011;49504;48.336;14.472;2022-12-07T22:32:20;8.85;;;6.00;;
63370;SDS011;49504;48.336;14.472;2022-12-07T22:37:21;7.63;;;5.85;;
63370;SDS011;49504;48.336;14.472;2022-12-07T22:42:23;9.88;;;5.55;;
63370;SDS011;49504;48.336;14.472;2022-12-07T22:47:25;8.23;;;5.50;;
63370;SDS011;49504;48.336;14.472;2022-12-07T22:52:25;8.30;;;5.75;;
63370;SDS011;49504;48.336;14.472;2022-12-07T22:57:29;8.35;;;5.70;;
63370;SDS011;49504;48.336;14.472;2022-12-07T23:02:30;6.97;;;5.05;;
63370;SDS011;49504;48.336;14.472;2022-12-07T23:07:30;8.93;;;5.75;;
63370;SDS011;49504;48.336;14.472;2022-12-07T23:12:33;7.78;;;5.07;;
63370;SDS011;49504;48.336;14.472;2022-12-07T23:17:34;8.25;;;5.38;;
63370;SDS011;49504;48.336;14.472;2022-12-07T23:22:35;6.97;;;4.78;;
63370;SDS011;49504;48.336;14.472;2022-12-07T23:27:38;7.68;;;5.20;;
63370;SDS011;49504;48.336;14.472;2022-12-07T23:32:39;7.40;;;4.57;;
63370;SDS011;49504;48.336;14.472;2022-12-07T23:37:40;7.35;;;5.13;;
63370;SDS011;49504;48.336;14.472;2022-12-07T23:42:42;7.68;;;5.15;;
63370;SDS011;49504;48.336;14.472;2022-12-07T23:47:43;7.50;;;5.22;;
63370;SDS011;49504;48.336;14.472;2022-12-07T23:52:44;8.65;;;5.20;;
63370;SDS011;49504;48.336;14.472;2022-12-07T23:57:46;7.40;;;5.07;;
